Terminal Aerodrome Forecast
Issued by NWS

Home | Current Version | Previous Version | Text Only | Print | Product List | Glossary On
Versions: 1 2 3 4 5 6 7 8 9 10 11 12 13 14 15 16 17 18 19
000
FTAK31 PAFA 252324
TAFAQT
TAF
PAQT 252324Z 2600/2624 02006KT 6SM -SN BR SCT007 OVC012
     FM260900 05006KT 5SM -SN BR BKN007 OVC012
     FM261200 05006KT 4SM -SN BR BKN007 OVC012=

USA.gov is the U.S. government's official web portal to all federal, state and local government web resources and services.